Ask Your Question

Rabin's profile - karma

Rabin's karma change log

10 0 Change ssh port in Fedora Server 29 ( 2018-11-20 14:00:41 -0600 )

0 10 Change ssh port in Fedora Server 29 ( 2018-11-18 10:01:06 -0600 )

15 0 Unable to update VirtualBox modules after last kernel update ( 2018-09-14 08:34:02 -0600 )

10 0 Unable to update VirtualBox modules after last kernel update ( 2018-09-14 08:34:01 -0600 )

10 0 I cannot get Spotify to install ( 2018-09-09 10:34:46 -0600 )

10 0 I cannot get Spotify to install ( 2018-09-09 07:15:30 -0600 )

10 0 Guake: it starts, but pressing F12 doesn't reveal it all the time ( 2018-01-11 14:05:44 -0600 )

15 0 Is it possible to install Fedora from a chroot in a way analogous to Arch Linux? ( 2017-12-30 03:10:43 -0600 )

15 0 I created a 190-digit password... How secure is this? ( 2017-12-30 03:10:16 -0600 )

0 -15 Is it possible to install Fedora from a chroot in a way analogous to Arch Linux? ( 2017-12-30 03:09:07 -0600 )

15 0 Is it possible to install Fedora from a chroot in a way analogous to Arch Linux? ( 2017-12-30 03:08:57 -0600 )

10 0 I created a 190-digit password... How secure is this? ( 2017-12-26 06:11:36 -0600 )

10 0 Is it possible to install Fedora from a chroot in a way analogous to Arch Linux? ( 2017-12-25 17:14:40 -0600 )

10 0 I created a 190-digit password... How secure is this? ( 2017-12-25 16:56:17 -0600 )

10 0 Is it possible to install Fedora from a chroot in a way analogous to Arch Linux? ( 2017-12-25 16:52:42 -0600 )

10 0 I created a 190-digit password... How secure is this? ( 2017-12-25 06:38:56 -0600 )

10 0 I created a 190-digit password... How secure is this? ( 2017-12-24 12:18:15 -0600 )

10 0 How to securely delete files on Fedora 27 (ext4)? ( 2017-12-24 06:39:52 -0600 )

10 0 How to securely delete files on Fedora 27 (ext4)? ( 2017-12-24 05:39:09 -0600 )

2 0 How remove unused locale? ( 2017-10-31 04:54:46 -0600 )

10 0 DNF crash created duplicate installs, DNF is a duplicate ( 2017-09-19 09:43:01 -0600 )

10 0 Can i get fedora 7 download ? ( 2017-05-31 23:46:29 -0600 )

10 0 Can i get fedora 7 download ? ( 2017-05-31 23:00:03 -0600 )

10 0 Can i get fedora 7 download ? ( 2017-05-31 21:59:09 -0600 )

10 0 Virtualbox and KVM/QEMU parallel use possible ( 2017-05-24 09:34:43 -0600 )

15 0 How do I keep a window in place when switching viewports with compiz? ( 2017-05-22 13:26:01 -0600 )

10 0 php.ini not working ( 2017-05-09 10:53:42 -0600 )

10 0 php.ini not working ( 2017-05-09 03:58:01 -0600 )

15 0 Turn displays off without suspend/hibernate. ( 2017-04-18 10:31:48 -0600 )

15 0 How do I insert spaces in the [+format] string of the date command ( 2017-04-16 16:16:48 -0600 )

0 -2 [Sticky] How do I make the software updater skip/exclude some packages? ( 2017-03-27 05:25:30 -0600 )

2 0 [Sticky] How do I make the software updater skip/exclude some packages? ( 2017-03-27 05:25:30 -0600 )

10 0 Hosting subdomains in Fedora Server 25 ( 2017-03-21 23:41:31 -0600 )

10 0 Hosting subdomains in Fedora Server 25 ( 2017-03-21 11:18:37 -0600 )

0 -1 Kernel 4.9.3 won't boot ( 2017-01-17 06:33:58 -0600 )

10 0 Fedora 25 new install - Can't get an IPV4, only IPV6 ( 2016-12-27 23:01:12 -0600 )

10 0 How do I insert spaces in the [+format] string of the date command ( 2016-12-21 01:35:57 -0600 )

10 0 How do I insert spaces in the [+format] string of the date command ( 2016-12-20 23:25:34 -0600 )

10 0 How do I insert spaces in the [+format] string of the date command ( 2016-12-20 19:40:46 -0600 )

10 0 How do I insert spaces in the [+format] string of the date command ( 2016-12-20 18:08:37 -0600 )

0 -5 When I download a video using youtube-dl I can't find it. ( 2016-06-09 17:21:24 -0600 )

15 0 When I download a video using youtube-dl I can't find it. ( 2016-06-09 17:21:19 -0600 )

10 0 is there a command to list applications packages only ? ( 2016-04-20 19:50:56 -0600 )

10 0 How can I remove all installed packages and keep only base system packages? ( 2016-04-17 20:26:16 -0600 )

15 0 virbr0 interface up and disappeared ( 2016-04-08 16:16:21 -0600 )

10 0 virbr0 interface up and disappeared ( 2016-04-08 16:00:26 -0600 )

10 0 Enable shortcut for right-ctrl ( 2016-04-07 02:37:29 -0600 )

10 0 Any good client for google-drive? ( 2016-03-03 07:27:28 -0600 )

10 0 Any good client for google-drive? ( 2016-03-03 06:20:16 -0600 )

10 0 Failed to mount Windows share: Broken pipe ( 2015-12-07 16:28:26 -0600 )

10 0 Can't boot into windows after installing fedora ( 2015-11-11 16:41:23 -0600 )

10 0 Fedora 23 Workstation - Virtualbox setup ( 2015-11-08 19:42:10 -0600 )

10 0 Right-to-left in Terminal ( 2015-11-03 08:01:50 -0600 )

10 0 How to change which partition boots from GRUB on dual-boot F22/RHEL7? ( 2015-08-21 11:39:29 -0600 )

15 0 How to change which partition boots from GRUB on dual-boot F22/RHEL7? ( 2015-08-21 11:39:24 -0600 )

10 0 problem on installing fedy ( 2015-08-19 09:13:23 -0600 )

10 0 Can dnf history undo several transactions in one step? ( 2015-08-07 00:49:57 -0600 )

10 0 Failed to open VDPAU backend libvdpau_va_gl.so ( 2015-07-14 23:36:58 -0600 )

10 0 How do I run MediaWiki on Fedora? ( 2015-06-29 11:12:32 -0600 )

10 0 Convert markdown to html ( 2015-06-29 10:00:21 -0600 )

10 0 Convert markdown to html ( 2015-06-29 09:24:52 -0600 )

15 0 Convert markdown to html ( 2015-06-29 09:24:50 -0600 )

10 0 Knowing exact time of power outage looking on system logs files ( 2015-05-29 15:55:07 -0600 )

10 0 Why doesn't the Dropbox repository for Fedora 19 work? ( 2014-12-25 15:51:43 -0600 )

15 0 Acronis True Image alternative ( 2014-09-29 09:11:58 -0600 )

15 0 SSH not working anymore after attempt to change the color of sessions in .bashrc ( 2014-09-03 23:50:18 -0600 )

10 0 SSH not working anymore after attempt to change the color of sessions in .bashrc ( 2014-08-31 13:48:56 -0600 )

10 0 Acronis True Image alternative ( 2014-08-01 07:36:47 -0600 )

10 0 Acronis True Image alternative ( 2014-07-31 02:41:17 -0600 )

10 0 P2v physical machine to virtual ( 2014-03-12 15:18:42 -0600 )

0 -10 P2v physical machine to virtual ( 2014-03-12 15:18:40 -0600 )

10 0 P2v physical machine to virtual ( 2014-03-12 15:18:40 -0600 )

10 0 Is it true that F20 has a built in firewall? ( 2014-03-07 17:20:41 -0600 )

0 -10 Is it true that F20 has a built in firewall? ( 2014-03-05 13:53:52 -0600 )

15 0 Is it true that F20 has a built in firewall? ( 2014-03-05 13:53:51 -0600 )

10 0 Is it true that F20 has a built in firewall? ( 2014-03-05 13:53:49 -0600 )

0 -10 Is it true that F20 has a built in firewall? ( 2014-03-05 13:53:44 -0600 )

0 -5 Is it true that F20 has a built in firewall? ( 2014-03-05 13:53:39 -0600 )

15 0 Is it true that F20 has a built in firewall? ( 2014-03-05 13:53:29 -0600 )

10 0 Is it true that F20 has a built in firewall? ( 2014-03-05 13:53:27 -0600 )

10 0 Is it true that F20 has a built in firewall? ( 2014-03-05 13:44:34 -0600 )

2 0 fedup fedora19 -> fedora20 fails ( 2013-12-29 02:12:51 -0600 )

10 0 Yum is complaining about broken or duplicated libraries ( 2013-11-15 17:23:59 -0600 )

10 0 Why doesn't the Dropbox repository for Fedora 19 work? ( 2013-11-08 10:29:31 -0600 )

0 -2 Dropbox error ( 2013-07-28 15:21:59 -0600 )

2 0 Dropbox error ( 2013-07-28 15:21:59 -0600 )

0 -15 Why doesn't the Dropbox repository for Fedora 19 work? ( 2013-07-19 01:29:33 -0600 )

15 0 Why doesn't the Dropbox repository for Fedora 19 work? ( 2013-07-19 01:29:28 -0600 )

10 0 Why doesn't the Dropbox repository for Fedora 19 work? ( 2013-07-06 16:59:01 -0600 )

10 0 Why doesn't the Dropbox repository for Fedora 19 work? ( 2013-07-06 16:58:54 -0600 )

0 -10 Why doesn't the Dropbox repository for Fedora 19 work? ( 2013-07-06 16:58:54 -0600 )

10 0 Why doesn't the Dropbox repository for Fedora 19 work? ( 2013-07-03 06:58:17 -0600 )

0 -15 Boot problem (GRUB?) ( 2013-06-25 12:50:06 -0600 )

15 0 Boot problem (GRUB?) ( 2013-06-25 12:49:48 -0600 )

0 -2 Boot problem (GRUB?) ( 2013-06-25 01:41:23 -0600 )

10 0 Why doesn't the Dropbox repository for Fedora 19 work? ( 2013-06-23 04:59:21 -0600 )

10 0 Why doesn't the Dropbox repository for Fedora 19 work? ( 2013-06-22 14:27:56 -0600 )

0 -10 Why doesn't the Dropbox repository for Fedora 19 work? ( 2013-06-22 14:27:55 -0600 )

10 0 Why doesn't the Dropbox repository for Fedora 19 work? ( 2013-06-22 14:27:47 -0600 )

15 0 Configuring Firewall in Fedora 18 ( 2013-06-21 07:44:03 -0600 )